createdAt,value
2023-02-06T09:49:43.031Z,71.56
2023-02-06T09:52:04.129Z,71.56
2023-02-06T09:54:23.020Z,72.17
2023-02-06T09:56:52.438Z,73.15
2023-02-06T09:59:32.954Z,73.20
2023-02-06T10:01:40.289Z,72.24
2023-02-06T10:04:31.160Z,71.23
2023-02-06T10:06:42.926Z,70.43
2023-02-06T10:09:05.270Z,71.07
2023-02-06T10:11:17.519Z,70.47
2023-02-06T10:13:38.697Z,70.96
2023-02-06T10:15:46.490Z,70.62
2023-02-06T10:18:14.807Z,71.68
2023-02-06T10:20:31.693Z,71.69
2023-02-06T10:22:39.190Z,71.27
2023-02-06T10:24:54.101Z,70.45
2023-02-06T10:27:01.344Z,69.94
2023-02-06T10:29:05.183Z,69.13
2023-02-06T10:31:26.517Z,68.32
2023-02-06T10:34:01.482Z,68.01
2023-02-06T10:36:37.142Z,67.69
2023-02-06T10:39:07.840Z,67.26
2023-02-06T10:42:01.858Z,66.85
2023-02-06T10:44:29.237Z,66.21
2023-02-06T10:46:46.234Z,67.69
2023-02-06T10:49:10.227Z,67.82
2023-02-06T10:51:21.499Z,67.41
2023-02-06T10:53:34.014Z,65.94
2023-02-06T10:55:46.380Z,65.69
2023-02-06T10:58:01.651Z,64.11
2023-02-06T11:00:05.145Z,64.25
2023-02-06T11:02:16.962Z,63.09
2023-02-06T11:04:29.710Z,62.79
2023-02-06T11:06:33.210Z,62.51
2023-02-06T11:08:43.756Z,62.05
2023-02-06T11:10:46.683Z,62.13
2023-02-06T11:13:22.933Z,61.93
2023-02-06T11:15:32.870Z,61.73
2023-02-06T11:17:36.098Z,62.00
2023-02-06T11:19:42.499Z,62.19
2023-02-06T11:21:44.766Z,62.16
2023-02-06T11:23:48.021Z,61.56
2023-02-06T11:26:15.516Z,61.52
2023-02-06T11:28:20.327Z,60.56
2023-02-06T11:30:32.418Z,59.69
2023-02-06T11:32:52.785Z,58.93
2023-02-06T11:35:20.520Z,57.36
2023-02-06T11:37:36.066Z,54.82
2023-02-06T11:39:39.513Z,51.58
2023-02-06T11:42:00.506Z,48.87
2023-02-06T11:44:06.686Z,46.34
2023-02-06T11:46:23.478Z,44.63
2023-02-06T11:48:31.595Z,43.22
2023-02-06T11:50:37.307Z,41.49
2023-02-06T11:52:42.531Z,40.89
2023-02-06T11:54:54.918Z,40.67
2023-02-06T11:57:03.393Z,39.94
2023-02-06T11:59:22.996Z,39.80
2023-02-06T12:01:25.316Z,41.24
2023-02-06T12:03:33.361Z,42.44
2023-02-06T12:05:42.783Z,42.48
2023-02-06T12:08:27.073Z,40.52
2023-02-06T12:10:34.649Z,39.41
2023-02-06T12:12:42.812Z,38.48
2023-02-06T12:14:54.356Z,37.77
2023-02-06T12:17:00.706Z,35.93
2023-02-06T12:19:10.771Z,34.77
2023-02-06T12:21:37.739Z,34.46
2023-02-06T12:23:49.197Z,35.25
2023-02-06T12:25:57.351Z,36.77
2023-02-06T12:28:16.369Z,39.23
2023-02-06T12:30:34.405Z,39.78
2023-02-06T12:32:45.546Z,39.52
2023-02-06T12:34:56.008Z,39.79
2023-02-06T12:37:15.900Z,38.97
2023-02-06T12:39:21.962Z,39.97
2023-02-06T12:41:54.944Z,41.03
2023-02-06T12:44:03.672Z,40.89
2023-02-06T12:46:22.735Z,39.43
2023-02-06T12:48:43.026Z,40.61
2023-02-06T12:51:11.512Z,41.73
2023-02-06T12:53:31.161Z,41.53
2023-02-06T12:55:39.046Z,41.33
2023-02-06T12:57:42.455Z,40.61
2023-02-06T12:59:59.718Z,39.69
2023-02-06T13:02:35.608Z,39.09
2023-02-06T13:04:38.400Z,40.74
2023-02-06T13:06:56.983Z,41.32
2023-02-06T13:09:16.128Z,40.91
2023-02-06T13:11:21.612Z,40.40
2023-02-06T13:13:36.653Z,39.05
2023-02-06T13:15:41.352Z,39.58
2023-02-06T13:17:44.937Z,40.93
2023-02-06T13:19:47.199Z,41.57
2023-02-06T13:22:08.001Z,41.72
2023-02-06T13:24:18.033Z,41.91
2023-02-06T13:26:51.684Z,41.32
2023-02-06T13:28:57.941Z,40.42
2023-02-06T13:31:04.432Z,41.04
2023-02-06T13:33:15.959Z,40.92
2023-02-06T13:35:22.773Z,41.35
2023-02-06T13:37:48.282Z,43.95
2023-02-06T13:40:23.140Z,44.78
2023-02-06T13:42:46.439Z,46.67
2023-02-06T13:44:49.629Z,47.29
2023-02-06T13:47:15.850Z,47.69
2023-02-06T13:50:20.426Z,49.17
2023-02-06T13:52:39.654Z,50.36
2023-02-06T13:55:14.402Z,50.93
2023-02-06T13:57:45.762Z,51.67
2023-02-06T14:00:03.982Z,52.07
2023-02-06T14:02:17.089Z,52.58
2023-02-06T14:04:25.532Z,53.51
2023-02-06T14:06:30.761Z,53.52
2023-02-06T14:08:51.861Z,54.32
2023-02-06T14:11:19.389Z,54.85
2023-02-06T14:13:50.851Z,55.02
2023-02-06T14:16:33.854Z,55.52
2023-02-06T14:18:53.256Z,55.56
2023-02-06T14:21:20.079Z,55.75
2023-02-06T14:23:34.208Z,55.82
2023-02-06T14:26:15.630Z,56.06
2023-02-06T14:28:47.016Z,56.35
2023-02-06T14:30:58.833Z,57.54
2023-02-06T14:33:27.090Z,57.94
2023-02-06T14:35:55.888Z,58.16
2023-02-06T14:38:35.362Z,58.04
2023-02-06T14:40:42.695Z,58.52
2023-02-06T14:42:46.234Z,59.05
2023-02-06T14:44:57.116Z,59.23
2023-02-06T14:46:59.657Z,58.68
2023-02-06T14:49:04.029Z,58.51
2023-02-06T14:51:08.858Z,58.98
2023-02-06T14:53:25.437Z,59.32
2023-02-06T14:55:37.499Z,59.12
2023-02-06T14:57:45.041Z,60.15
2023-02-06T14:59:53.643Z,59.69
2023-02-06T15:01:58.088Z,60.01
2023-02-06T15:04:30.233Z,59.26
2023-02-06T15:06:35.511Z,59.91
2023-02-06T15:08:38.036Z,60.32
2023-02-06T15:10:40.625Z,60.46
2023-02-06T15:12:51.855Z,61.10
2023-02-06T15:15:14.202Z,61.30
2023-02-06T15:17:22.439Z,61.15
2023-02-06T15:19:28.023Z,61.95
2023-02-06T15:21:30.355Z,62.73
2023-02-06T15:24:02.938Z,62.54
2023-02-06T15:26:32.109Z,62.50
2023-02-06T15:28:36.807Z,62.95
2023-02-06T15:30:39.509Z,63.32
2023-02-06T15:32:42.109Z,63.93
2023-02-06T15:34:46.450Z,64.42
2023-02-06T15:36:49.157Z,65.02
2023-02-06T15:38:52.116Z,65.13
2023-02-06T15:41:07.249Z,65.67
2023-02-06T15:43:15.426Z,66.58
2023-02-06T15:45:28.924Z,66.31
2023-02-06T15:47:32.538Z,67.09
2023-02-06T15:49:43.696Z,68.23
2023-02-06T15:51:55.058Z,68.18
2023-02-06T15:54:24.654Z,68.61
2023-02-06T15:56:31.816Z,69.40
2023-02-06T15:58:36.545Z,69.85
2023-02-06T16:00:39.730Z,70.21
2023-02-06T16:02:42.783Z,70.50
2023-02-06T16:04:45.172Z,70.78
2023-02-06T16:07:00.845Z,71.04
2023-02-06T16:09:07.369Z,71.48
2023-02-06T16:11:30.945Z,72.03
2023-02-06T16:13:33.489Z,72.48
2023-02-06T16:15:38.698Z,72.31
2023-02-06T16:17:42.828Z,72.79
2023-02-06T16:19:54.735Z,72.86
2023-02-06T16:22:29.570Z,73.19
2023-02-06T16:24:31.958Z,74.29
2023-02-06T16:26:46.995Z,74.17
2023-02-06T16:28:57.842Z,74.86
2023-02-06T16:31:04.572Z,75.21
2023-02-06T16:33:29.450Z,75.03
2023-02-06T16:35:33.257Z,76.59
2023-02-06T16:37:35.674Z,76.87
2023-02-06T16:39:43.034Z,77.81
2023-02-06T16:41:50.995Z,77.41
2023-02-06T16:43:55.154Z,77.53
2023-02-06T16:46:00.577Z,77.57
2023-02-06T16:48:03.642Z,76.88
2023-02-06T16:50:06.084Z,77.17
2023-02-06T16:52:09.263Z,77.89
2023-02-06T16:54:24.753Z,76.99
2023-02-06T16:56:27.189Z,76.80
2023-02-06T16:58:31.880Z,77.01
2023-02-06T17:00:34.974Z,77.31
2023-02-06T17:02:37.959Z,78.32
2023-02-06T17:04:41.455Z,78.23
2023-02-06T17:06:44.441Z,78.38
2023-02-06T17:08:48.084Z,79.09
2023-02-06T17:10:50.953Z,80.04
2023-02-06T17:12:54.264Z,80.01
2023-02-06T17:14:56.795Z,80.16
2023-02-06T17:16:59.321Z,80.12
2023-02-06T17:19:02.297Z,80.04
2023-02-06T17:21:05.362Z,80.59
2023-02-06T17:23:10.980Z,80.88
2023-02-06T17:25:13.991Z,81.25
2023-02-06T17:27:21.897Z,82.39
2023-02-06T17:29:27.528Z,83.11
2023-02-06T17:31:31.142Z,83.50
2023-02-06T17:33:34.639Z,83.87
2023-02-06T17:35:38.072Z,84.95
2023-02-06T17:37:41.420Z,84.03
2023-02-06T17:39:44.066Z,83.83
2023-02-06T17:41:47.933Z,84.23
2023-02-06T17:43:51.155Z,84.17
2023-02-06T17:45:54.633Z,85.19
2023-02-06T17:47:58.065Z,86.09
2023-02-06T17:50:01.260Z,86.49
2023-02-06T17:52:04.295Z,87.07
2023-02-06T17:54:07.148Z,87.09
2023-02-06T17:56:13.122Z,87.48
2023-02-06T17:58:15.648Z,89.17
2023-02-06T18:00:20.374Z,88.77
2023-02-06T18:02:23.213Z,88.94
2023-02-06T18:04:25.852Z,89.36
2023-02-06T18:06:32.684Z,89.45
2023-02-06T18:08:35.712Z,90.43
2023-02-06T18:10:39.601Z,90.84
2023-02-06T18:12:43.533Z,91.83
2023-02-06T18:14:49.463Z,92.88
2023-02-06T18:16:52.396Z,93.44
2023-02-06T18:18:55.601Z,93.98
2023-02-06T18:20:59.503Z,94.97
2023-02-06T18:23:03.123Z,95.85
2023-02-06T18:25:06.863Z,95.98
2023-02-06T18:27:11.877Z,95.13
2023-02-06T18:29:14.792Z,95.78
2023-02-06T18:31:30.827Z,95.66
2023-02-06T18:33:38.017Z,96.48
2023-02-06T18:35:44.468Z,96.00
2023-02-06T18:37:48.360Z,97.07
2023-02-06T18:39:51.569Z,96.90
2023-02-06T18:42:13.541Z,97.31
2023-02-06T18:44:16.990Z,98.24
2023-02-06T18:46:20.801Z,97.67
2023-02-06T18:48:24.754Z,97.55
2023-02-06T18:50:28.306Z,98.24
2023-02-06T18:52:32.574Z,98.81
2023-02-06T18:54:36.830Z,98.84
2023-02-06T18:56:40.315Z,99.53
2023-02-06T18:58:43.966Z,99.93
2023-02-06T19:00:47.694Z,100.00
2023-02-06T19:02:50.968Z,100.00
2023-02-06T19:04:58.588Z,100.00
2023-02-06T19:07:02.167Z,100.00
2023-02-06T19:09:07.636Z,100.00
2023-02-06T19:11:11.752Z,100.00
2023-02-06T19:13:17.033Z,100.00
2023-02-06T19:15:22.094Z,100.00
2023-02-06T19:17:26.802Z,100.00
2023-02-06T19:19:31.727Z,100.00
2023-02-06T19:21:35.227Z,100.00
2023-02-06T19:23:40.008Z,100.00
2023-02-06T19:25:44.861Z,100.00
2023-02-06T19:27:50.459Z,100.00
2023-02-06T19:29:58.666Z,100.00
2023-02-06T19:32:02.283Z,100.00
2023-02-06T19:34:05.737Z,100.00
2023-02-06T19:36:15.038Z,100.00
2023-02-06T19:38:17.855Z,100.00
2023-02-06T19:40:21.641Z,100.00
2023-02-06T19:42:25.253Z,100.00
2023-02-06T19:44:32.453Z,100.00
2023-02-06T19:46:40.158Z,100.00
2023-02-06T19:48:46.152Z,100.00
2023-02-06T19:50:49.873Z,100.00
2023-02-06T19:52:53.670Z,100.00
2023-02-06T19:54:57.845Z,100.00
2023-02-06T19:57:02.506Z,100.00
2023-02-06T19:59:18.586Z,100.00
2023-02-06T20:01:23.529Z,100.00
2023-02-06T20:03:28.867Z,100.00
2023-02-06T20:05:35.485Z,100.00
2023-02-06T20:07:38.969Z,100.00
2023-02-06T20:09:46.530Z,100.00
2023-02-06T20:11:50.462Z,100.00
2023-02-06T20:13:55.691Z,100.00
2023-02-06T20:16:03.900Z,100.00
2023-02-06T20:18:08.607Z,100.00
2023-02-06T20:20:12.907Z,100.00
2023-02-06T20:22:16.976Z,100.00
2023-02-06T20:24:26.599Z,100.00
2023-02-06T20:26:35.903Z,100.00
2023-02-06T20:28:40.862Z,100.00
2023-02-06T20:30:45.609Z,100.00
2023-02-06T20:32:50.327Z,100.00
2023-02-06T20:34:58.316Z,100.00
2023-02-06T20:37:03.449Z,100.00
2023-02-06T20:39:06.555Z,100.00
2023-02-06T20:41:11.080Z,100.00
2023-02-06T20:43:14.456Z,100.00
2023-02-06T20:45:17.417Z,100.00
2023-02-06T20:47:20.324Z,100.00
2023-02-06T20:49:27.390Z,100.00
2023-02-06T20:51:31.097Z,100.00
2023-02-06T20:53:34.302Z,100.00
2023-02-06T20:55:46.218Z,100.00
2023-02-06T20:57:49.367Z,100.00
2023-02-06T20:59:53.320Z,100.00
2023-02-06T21:01:56.665Z,100.00
2023-02-06T21:04:04.523Z,100.00
2023-02-06T21:06:08.303Z,100.00
2023-02-06T21:08:11.638Z,100.00
2023-02-06T21:10:15.199Z,100.00
2023-02-06T21:12:18.506Z,100.00
2023-02-06T21:14:21.620Z,100.00
2023-02-06T21:16:25.235Z,100.00
2023-02-06T21:18:30.955Z,100.00
2023-02-06T21:20:33.641Z,100.00
2023-02-06T21:22:36.268Z,100.00
2023-02-06T21:24:39.126Z,100.00
2023-02-06T21:26:41.669Z,100.00
2023-02-06T21:28:46.566Z,100.00
2023-02-06T21:30:50.332Z,100.00
2023-02-06T21:32:55.201Z,100.00
2023-02-06T21:34:57.603Z,100.00
2023-02-06T21:37:00.203Z,100.00
2023-02-06T21:39:03.692Z,100.00
2023-02-06T21:41:08.012Z,100.00
2023-02-06T21:43:11.140Z,100.00
2023-02-06T21:45:13.766Z,100.00
2023-02-06T21:47:16.092Z,100.00
2023-02-06T21:49:19.709Z,100.00
2023-02-06T21:51:23.180Z,100.00
2023-02-06T21:53:25.590Z,100.00
2023-02-06T21:55:31.536Z,100.00
2023-02-06T21:57:33.963Z,100.00
2023-02-06T21:59:37.971Z,100.00
2023-02-06T22:01:41.279Z,100.00
2023-02-06T22:03:45.350Z,100.00
2023-02-06T22:05:47.696Z,100.00
2023-02-06T22:07:50.121Z,100.00
2023-02-06T22:09:52.724Z,100.00
2023-02-06T22:11:55.815Z,100.00
2023-02-06T22:14:01.097Z,100.00
2023-02-06T22:16:03.960Z,100.00
2023-02-06T22:18:06.380Z,100.00
2023-02-06T22:20:08.917Z,100.00
2023-02-06T22:22:12.619Z,100.00
2023-02-06T22:24:15.110Z,100.00
2023-02-06T22:26:19.499Z,100.00
2023-02-06T22:28:22.198Z,100.00
2023-02-06T22:30:24.714Z,100.00
2023-02-06T22:32:27.200Z,100.00
2023-02-06T22:34:31.590Z,100.00
2023-02-06T22:36:33.980Z,100.00
2023-02-06T22:38:37.304Z,100.00
2023-02-06T22:40:40.010Z,100.00
2023-02-06T22:42:42.309Z,100.00
2023-02-06T22:44:44.651Z,100.00
2023-02-06T22:46:51.596Z,100.00
2023-02-06T22:48:54.226Z,100.00
2023-02-06T22:50:56.980Z,100.00
2023-02-06T22:53:17.846Z,100.00
2023-02-06T22:55:20.335Z,100.00
2023-02-06T22:57:23.808Z,100.00
2023-02-06T22:59:26.497Z,100.00
2023-02-06T23:01:39.031Z,100.00
2023-02-06T23:03:41.464Z,100.00
2023-02-06T23:05:44.066Z,100.00
2023-02-06T23:07:46.362Z,100.00
2023-02-06T23:09:48.673Z,100.00
2023-02-06T23:11:52.111Z,100.00
2023-02-06T23:13:57.162Z,100.00
2023-02-06T23:16:00.163Z,100.00
2023-02-06T23:18:02.792Z,100.00
2023-02-06T23:20:06.918Z,100.00
2023-02-06T23:22:10.676Z,100.00
2023-02-06T23:24:14.451Z,100.00
2023-02-06T23:26:18.671Z,100.00
2023-02-06T23:28:22.304Z,100.00
2023-02-06T23:30:25.694Z,100.00
2023-02-06T23:32:28.044Z,100.00
2023-02-06T23:34:30.384Z,100.00
2023-02-06T23:36:33.069Z,100.00
2023-02-06T23:38:35.731Z,100.00
2023-02-06T23:40:38.721Z,100.00
2023-02-06T23:42:41.327Z,100.00
2023-02-06T23:44:43.600Z,100.00
2023-02-06T23:46:46.189Z,100.00
2023-02-06T23:48:49.749Z,100.00
2023-02-06T23:50:52.287Z,100.00
2023-02-06T23:52:54.850Z,100.00
2023-02-06T23:54:57.465Z,100.00
